03TA weather

CLOSED Gay Hill Farm Airport
Gay Hill, Texas, United States

Public forecast

Using degrees Fahrenheit for public forecast. Weather courtesy of forecast.io.

Closest aviation weather report (METAR) to Gay Hill Farm Airport

Closest report is Brenham Municipal Airport, 7.0 nm (13.0 km) ESE. Retrieved 2020/08/05 13:55 UTC (8 minutes ago):

K11R 051355Z AUTO 24007KT 10SM CLR 28/25 A3003 RMK AO2 T02800246

Closest aviation forecast (TAF) to Gay Hill Farm Airport

Closest forecast is Easterwood Field, 20.8 nm (38.5 km) NNE. Retrieved 2020/08/05 12:30 UTC (2 hours ago):

TAF KCLL 051128Z 0512/0612 18006KT P6SM FEW060 FM051500 20006KT P6SM SCT040 FM060000 15007KT P6SM BKN250